sensor_id;sensor_type;location;lat;lon;timestamp;P1;durP1;ratioP1;P2;durP2;ratioP2
57889;SDS011;43707;50.184;18.966;2024-03-06T00:01:33;2.80;;;2.10;;
57889;SDS011;43707;50.184;18.966;2024-03-06T00:03:59;2.40;;;1.70;;
57889;SDS011;43707;50.184;18.966;2024-03-06T00:06:24;5.50;;;2.40;;
57889;SDS011;43707;50.184;18.966;2024-03-06T00:08:50;5.60;;;2.00;;
57889;SDS011;43707;50.184;18.966;2024-03-06T00:11:16;3.20;;;1.90;;
57889;SDS011;43707;50.184;18.966;2024-03-06T00:13:42;2.60;;;1.80;;
57889;SDS011;43707;50.184;18.966;2024-03-06T00:16:08;5.10;;;2.10;;
57889;SDS011;43707;50.184;18.966;2024-03-06T00:18:34;2.40;;;2.10;;
57889;SDS011;43707;50.184;18.966;2024-03-06T00:21:00;3.20;;;1.80;;
57889;SDS011;43707;50.184;18.966;2024-03-06T00:23:25;3.40;;;2.60;;
57889;SDS011;43707;50.184;18.966;2024-03-06T00:25:51;2.60;;;2.20;;
57889;SDS011;43707;50.184;18.966;2024-03-06T00:28:16;3.40;;;2.40;;
57889;SDS011;43707;50.184;18.966;2024-03-06T00:30:42;2.90;;;2.40;;
57889;SDS011;43707;50.184;18.966;2024-03-06T00:33:07;2.30;;;2.00;;
57889;SDS011;43707;50.184;18.966;2024-03-06T00:35:33;2.50;;;1.80;;
57889;SDS011;43707;50.184;18.966;2024-03-06T00:37:58;3.10;;;2.60;;
57889;SDS011;43707;50.184;18.966;2024-03-06T00:40:28;2.40;;;2.20;;
57889;SDS011;43707;50.184;18.966;2024-03-06T00:42:56;2.90;;;2.10;;
57889;SDS011;43707;50.184;18.966;2024-03-06T00:45:22;2.40;;;2.00;;
57889;SDS011;43707;50.184;18.966;2024-03-06T00:47:48;2.80;;;2.30;;
57889;SDS011;43707;50.184;18.966;2024-03-06T00:50:13;2.70;;;1.90;;
57889;SDS011;43707;50.184;18.966;2024-03-06T00:52:41;2.50;;;1.90;;
57889;SDS011;43707;50.184;18.966;2024-03-06T00:55:08;2.60;;;1.90;;
57889;SDS011;43707;50.184;18.966;2024-03-06T00:57:35;2.70;;;2.30;;
57889;SDS011;43707;50.184;18.966;2024-03-06T01:00:01;2.80;;;2.10;;
57889;SDS011;43707;50.184;18.966;2024-03-06T01:02:31;2.50;;;2.20;;
57889;SDS011;43707;50.184;18.966;2024-03-06T01:04:56;2.70;;;2.30;;
57889;SDS011;43707;50.184;18.966;2024-03-06T01:07:22;2.10;;;1.60;;
57889;SDS011;43707;50.184;18.966;2024-03-06T01:09:47;1.70;;;1.60;;
57889;SDS011;43707;50.184;18.966;2024-03-06T01:12:13;2.00;;;1.80;;
57889;SDS011;43707;50.184;18.966;2024-03-06T01:14:39;3.00;;;2.40;;
57889;SDS011;43707;50.184;18.966;2024-03-06T01:17:04;2.40;;;1.70;;
57889;SDS011;43707;50.184;18.966;2024-03-06T01:19:30;2.90;;;2.40;;
57889;SDS011;43707;50.184;18.966;2024-03-06T01:21:56;2.40;;;1.90;;
57889;SDS011;43707;50.184;18.966;2024-03-06T01:24:21;2.30;;;2.00;;
57889;SDS011;43707;50.184;18.966;2024-03-06T01:26:46;2.40;;;2.10;;
57889;SDS011;43707;50.184;18.966;2024-03-06T01:29:12;2.60;;;1.90;;
57889;SDS011;43707;50.184;18.966;2024-03-06T01:31:37;2.40;;;2.20;;
57889;SDS011;43707;50.184;18.966;2024-03-06T01:34:03;2.00;;;1.70;;
57889;SDS011;43707;50.184;18.966;2024-03-06T01:36:28;1.80;;;1.40;;
57889;SDS011;43707;50.184;18.966;2024-03-06T01:38:54;2.20;;;2.00;;
57889;SDS011;43707;50.184;18.966;2024-03-06T01:41:19;2.00;;;1.70;;
57889;SDS011;43707;50.184;18.966;2024-03-06T01:43:45;3.00;;;1.70;;
57889;SDS011;43707;50.184;18.966;2024-03-06T01:46:10;1.20;;;1.10;;
57889;SDS011;43707;50.184;18.966;2024-03-06T01:48:35;2.00;;;1.50;;
57889;SDS011;43707;50.184;18.966;2024-03-06T01:51:03;1.60;;;1.20;;
57889;SDS011;43707;50.184;18.966;2024-03-06T01:53:30;1.70;;;1.40;;
57889;SDS011;43707;50.184;18.966;2024-03-06T01:55:57;1.40;;;1.30;;
57889;SDS011;43707;50.184;18.966;2024-03-06T01:58:23;1.50;;;1.10;;
57889;SDS011;43707;50.184;18.966;2024-03-06T02:00:49;1.80;;;1.50;;
57889;SDS011;43707;50.184;18.966;2024-03-06T02:03:15;1.80;;;1.30;;
57889;SDS011;43707;50.184;18.966;2024-03-06T02:05:41;1.70;;;1.40;;
57889;SDS011;43707;50.184;18.966;2024-03-06T02:08:07;1.80;;;1.50;;
57889;SDS011;43707;50.184;18.966;2024-03-06T02:10:32;1.70;;;1.40;;
57889;SDS011;43707;50.184;18.966;2024-03-06T02:12:59;2.10;;;1.70;;
57889;SDS011;43707;50.184;18.966;2024-03-06T02:15:25;1.90;;;1.30;;
57889;SDS011;43707;50.184;18.966;2024-03-06T02:17:50;1.30;;;1.10;;
57889;SDS011;43707;50.184;18.966;2024-03-06T02:20:20;1.30;;;1.20;;
57889;SDS011;43707;50.184;18.966;2024-03-06T02:22:49;1.30;;;1.00;;
57889;SDS011;43707;50.184;18.966;2024-03-06T02:25:15;1.20;;;1.00;;
57889;SDS011;43707;50.184;18.966;2024-03-06T02:27:42;1.60;;;1.30;;
57889;SDS011;43707;50.184;18.966;2024-03-06T02:30:08;1.60;;;1.40;;
57889;SDS011;43707;50.184;18.966;2024-03-06T02:32:37;1.60;;;1.20;;
57889;SDS011;43707;50.184;18.966;2024-03-06T02:35:03;1.50;;;1.20;;
57889;SDS011;43707;50.184;18.966;2024-03-06T02:37:33;1.60;;;1.20;;
57889;SDS011;43707;50.184;18.966;2024-03-06T02:39:59;1.70;;;1.20;;
57889;SDS011;43707;50.184;18.966;2024-03-06T02:42:26;1.30;;;1.10;;
57889;SDS011;43707;50.184;18.966;2024-03-06T02:44:52;1.40;;;1.00;;
57889;SDS011;43707;50.184;18.966;2024-03-06T02:47:18;1.50;;;1.10;;
57889;SDS011;43707;50.184;18.966;2024-03-06T02:49:44;1.10;;;1.00;;
57889;SDS011;43707;50.184;18.966;2024-03-06T02:52:10;2.30;;;1.00;;
57889;SDS011;43707;50.184;18.966;2024-03-06T02:54:35;1.10;;;1.00;;
57889;SDS011;43707;50.184;18.966;2024-03-06T02:57:01;1.80;;;1.00;;
57889;SDS011;43707;50.184;18.966;2024-03-06T02:59:27;1.20;;;1.00;;
57889;SDS011;43707;50.184;18.966;2024-03-06T03:01:52;1.50;;;1.10;;
57889;SDS011;43707;50.184;18.966;2024-03-06T03:04:18;1.30;;;1.10;;
57889;SDS011;43707;50.184;18.966;2024-03-06T03:06:43;2.50;;;1.20;;
57889;SDS011;43707;50.184;18.966;2024-03-06T03:09:09;2.20;;;1.50;;
57889;SDS011;43707;50.184;18.966;2024-03-06T03:11:37;2.30;;;1.10;;
57889;SDS011;43707;50.184;18.966;2024-03-06T03:14:03;1.10;;;1.00;;
57889;SDS011;43707;50.184;18.966;2024-03-06T03:16:28;2.70;;;1.00;;
57889;SDS011;43707;50.184;18.966;2024-03-06T03:18:55;1.20;;;0.80;;
57889;SDS011;43707;50.184;18.966;2024-03-06T03:21:20;5.10;;;1.20;;
57889;SDS011;43707;50.184;18.966;2024-03-06T03:23:46;1.60;;;1.20;;
57889;SDS011;43707;50.184;18.966;2024-03-06T03:26:12;4.00;;;1.00;;
57889;SDS011;43707;50.184;18.966;2024-03-06T03:28:40;2.40;;;1.10;;
57889;SDS011;43707;50.184;18.966;2024-03-06T03:31:09;1.20;;;1.10;;
57889;SDS011;43707;50.184;18.966;2024-03-06T03:33:38;1.10;;;0.90;;
57889;SDS011;43707;50.184;18.966;2024-03-06T03:36:05;1.30;;;1.20;;
57889;SDS011;43707;50.184;18.966;2024-03-06T03:38:32;3.20;;;1.20;;
57889;SDS011;43707;50.184;18.966;2024-03-06T03:41:01;1.30;;;1.00;;
57889;SDS011;43707;50.184;18.966;2024-03-06T03:43:29;1.10;;;0.70;;
57889;SDS011;43707;50.184;18.966;2024-03-06T03:45:55;1.30;;;1.00;;
57889;SDS011;43707;50.184;18.966;2024-03-06T03:48:21;1.00;;;0.80;;
57889;SDS011;43707;50.184;18.966;2024-03-06T03:50:46;1.00;;;0.90;;
57889;SDS011;43707;50.184;18.966;2024-03-06T03:53:12;0.90;;;0.90;;
57889;SDS011;43707;50.184;18.966;2024-03-06T03:55:37;1.30;;;0.70;;
57889;SDS011;43707;50.184;18.966;2024-03-06T03:58:03;0.80;;;0.80;;
57889;SDS011;43707;50.184;18.966;2024-03-06T04:00:28;0.70;;;0.60;;
57889;SDS011;43707;50.184;18.966;2024-03-06T04:02:54;0.90;;;0.80;;
57889;SDS011;43707;50.184;18.966;2024-03-06T04:05:19;1.00;;;0.80;;
57889;SDS011;43707;50.184;18.966;2024-03-06T04:07:45;1.60;;;1.10;;
57889;SDS011;43707;50.184;18.966;2024-03-06T04:10:11;0.70;;;0.70;;
57889;SDS011;43707;50.184;18.966;2024-03-06T04:12:37;0.70;;;0.70;;
57889;SDS011;43707;50.184;18.966;2024-03-06T04:15:03;0.90;;;0.70;;
57889;SDS011;43707;50.184;18.966;2024-03-06T04:17:29;0.80;;;0.70;;
57889;SDS011;43707;50.184;18.966;2024-03-06T04:19:55;0.60;;;0.50;;
57889;SDS011;43707;50.184;18.966;2024-03-06T04:22:20;0.80;;;0.70;;
57889;SDS011;43707;50.184;18.966;2024-03-06T04:24:46;0.80;;;0.60;;
57889;SDS011;43707;50.184;18.966;2024-03-06T04:27:12;1.10;;;0.80;;
57889;SDS011;43707;50.184;18.966;2024-03-06T04:29:38;0.90;;;0.60;;
57889;SDS011;43707;50.184;18.966;2024-03-06T04:32:03;0.80;;;0.70;;
57889;SDS011;43707;50.184;18.966;2024-03-06T04:34:29;0.70;;;0.60;;
57889;SDS011;43707;50.184;18.966;2024-03-06T04:36:54;0.80;;;0.80;;
57889;SDS011;43707;50.184;18.966;2024-03-06T04:39:20;1.00;;;0.90;;
57889;SDS011;43707;50.184;18.966;2024-03-06T04:41:45;0.70;;;0.60;;
57889;SDS011;43707;50.184;18.966;2024-03-06T04:44:11;0.60;;;0.60;;
57889;SDS011;43707;50.184;18.966;2024-03-06T04:46:36;0.90;;;0.60;;
57889;SDS011;43707;50.184;18.966;2024-03-06T04:49:02;1.00;;;0.70;;
57889;SDS011;43707;50.184;18.966;2024-03-06T04:51:28;0.70;;;0.70;;
57889;SDS011;43707;50.184;18.966;2024-03-06T04:53:53;0.90;;;0.80;;
57889;SDS011;43707;50.184;18.966;2024-03-06T04:56:19;0.70;;;0.50;;
57889;SDS011;43707;50.184;18.966;2024-03-06T04:58:46;0.70;;;0.50;;
57889;SDS011;43707;50.184;18.966;2024-03-06T05:01:12;0.70;;;0.70;;
57889;SDS011;43707;50.184;18.966;2024-03-06T05:03:38;0.70;;;0.60;;
57889;SDS011;43707;50.184;18.966;2024-03-06T05:06:04;0.80;;;0.80;;
57889;SDS011;43707;50.184;18.966;2024-03-06T05:08:30;0.60;;;0.60;;
57889;SDS011;43707;50.184;18.966;2024-03-06T05:10:56;0.70;;;0.70;;
57889;SDS011;43707;50.184;18.966;2024-03-06T05:13:22;1.00;;;0.70;;
57889;SDS011;43707;50.184;18.966;2024-03-06T05:15:48;0.60;;;0.60;;
57889;SDS011;43707;50.184;18.966;2024-03-06T05:18:13;1.20;;;0.80;;
57889;SDS011;43707;50.184;18.966;2024-03-06T05:20:39;0.70;;;0.70;;
57889;SDS011;43707;50.184;18.966;2024-03-06T05:23:04;1.00;;;0.80;;
57889;SDS011;43707;50.184;18.966;2024-03-06T05:25:30;0.60;;;0.60;;
57889;SDS011;43707;50.184;18.966;2024-03-06T05:27:55;0.60;;;0.60;;
57889;SDS011;43707;50.184;18.966;2024-03-06T05:30:21;0.80;;;0.60;;
57889;SDS011;43707;50.184;18.966;2024-03-06T05:32:46;0.70;;;0.70;;
57889;SDS011;43707;50.184;18.966;2024-03-06T05:35:12;0.60;;;0.60;;
57889;SDS011;43707;50.184;18.966;2024-03-06T05:37:38;0.90;;;0.60;;
57889;SDS011;43707;50.184;18.966;2024-03-06T05:40:04;0.40;;;0.40;;
57889;SDS011;43707;50.184;18.966;2024-03-06T05:42:30;0.80;;;0.70;;
57889;SDS011;43707;50.184;18.966;2024-03-06T05:44:59;0.80;;;0.70;;
57889;SDS011;43707;50.184;18.966;2024-03-06T05:47:33;0.70;;;0.70;;
57889;SDS011;43707;50.184;18.966;2024-03-06T05:49:59;1.10;;;0.60;;
57889;SDS011;43707;50.184;18.966;2024-03-06T05:52:25;0.60;;;0.60;;
57889;SDS011;43707;50.184;18.966;2024-03-06T05:54:50;0.70;;;0.60;;
57889;SDS011;43707;50.184;18.966;2024-03-06T05:57:16;0.70;;;0.70;;
57889;SDS011;43707;50.184;18.966;2024-03-06T05:59:41;0.90;;;0.90;;
57889;SDS011;43707;50.184;18.966;2024-03-06T06:02:07;1.00;;;0.80;;
57889;SDS011;43707;50.184;18.966;2024-03-06T06:04:32;0.70;;;0.70;;
57889;SDS011;43707;50.184;18.966;2024-03-06T06:06:58;0.80;;;0.80;;
57889;SDS011;43707;50.184;18.966;2024-03-06T06:09:24;0.80;;;0.80;;
57889;SDS011;43707;50.184;18.966;2024-03-06T06:11:49;0.70;;;0.60;;
57889;SDS011;43707;50.184;18.966;2024-03-06T06:14:15;1.00;;;0.80;;
57889;SDS011;43707;50.184;18.966;2024-03-06T06:16:41;0.60;;;0.60;;
57889;SDS011;43707;50.184;18.966;2024-03-06T06:19:07;0.60;;;0.60;;
57889;SDS011;43707;50.184;18.966;2024-03-06T06:21:33;0.80;;;0.80;;
57889;SDS011;43707;50.184;18.966;2024-03-06T06:24:00;0.90;;;0.70;;
57889;SDS011;43707;50.184;18.966;2024-03-06T06:26:29;1.00;;;0.90;;
57889;SDS011;43707;50.184;18.966;2024-03-06T06:28:56;1.50;;;0.80;;
57889;SDS011;43707;50.184;18.966;2024-03-06T06:31:22;0.80;;;0.70;;
57889;SDS011;43707;50.184;18.966;2024-03-06T06:33:50;0.90;;;0.70;;
57889;SDS011;43707;50.184;18.966;2024-03-06T06:36:16;2.50;;;0.90;;
57889;SDS011;43707;50.184;18.966;2024-03-06T06:38:43;0.60;;;0.60;;
57889;SDS011;43707;50.184;18.966;2024-03-06T06:41:09;4.20;;;0.60;;
57889;SDS011;43707;50.184;18.966;2024-03-06T06:43:35;1.00;;;0.70;;
57889;SDS011;43707;50.184;18.966;2024-03-06T06:46:01;3.00;;;0.70;;
57889;SDS011;43707;50.184;18.966;2024-03-06T06:48:30;1.20;;;0.80;;
57889;SDS011;43707;50.184;18.966;2024-03-06T06:50:56;0.80;;;0.70;;
57889;SDS011;43707;50.184;18.966;2024-03-06T06:53:21;0.90;;;0.70;;
57889;SDS011;43707;50.184;18.966;2024-03-06T06:55:47;4.90;;;1.20;;
57889;SDS011;43707;50.184;18.966;2024-03-06T06:58:12;2.70;;;0.90;;
57889;SDS011;43707;50.184;18.966;2024-03-06T07:00:37;1.70;;;0.90;;
57889;SDS011;43707;50.184;18.966;2024-03-06T07:03:03;0.90;;;0.80;;
57889;SDS011;43707;50.184;18.966;2024-03-06T07:05:29;2.10;;;0.80;;
57889;SDS011;43707;50.184;18.966;2024-03-06T07:07:54;0.60;;;0.50;;
57889;SDS011;43707;50.184;18.966;2024-03-06T07:10:20;2.20;;;0.70;;
57889;SDS011;43707;50.184;18.966;2024-03-06T07:12:46;0.50;;;0.50;;
57889;SDS011;43707;50.184;18.966;2024-03-06T07:15:12;0.70;;;0.60;;
57889;SDS011;43707;50.184;18.966;2024-03-06T07:17:37;1.40;;;0.60;;
57889;SDS011;43707;50.184;18.966;2024-03-06T07:20:03;15.10;;;1.10;;
57889;SDS011;43707;50.184;18.966;2024-03-06T07:22:31;4.60;;;1.00;;
57889;SDS011;43707;50.184;18.966;2024-03-06T07:24:56;1.40;;;0.70;;
57889;SDS011;43707;50.184;18.966;2024-03-06T07:27:22;0.60;;;0.60;;
57889;SDS011;43707;50.184;18.966;2024-03-06T07:29:47;3.50;;;0.50;;
57889;SDS011;43707;50.184;18.966;2024-03-06T07:32:13;1.10;;;0.70;;
57889;SDS011;43707;50.184;18.966;2024-03-06T07:34:38;2.10;;;0.90;;
57889;SDS011;43707;50.184;18.966;2024-03-06T07:37:04;0.90;;;0.70;;
57889;SDS011;43707;50.184;18.966;2024-03-06T07:39:29;1.20;;;0.90;;
57889;SDS011;43707;50.184;18.966;2024-03-06T07:41:56;0.80;;;0.50;;
57889;SDS011;43707;50.184;18.966;2024-03-06T07:44:22;0.90;;;0.60;;
57889;SDS011;43707;50.184;18.966;2024-03-06T07:46:47;0.90;;;0.80;;
57889;SDS011;43707;50.184;18.966;2024-03-06T07:49:13;1.30;;;0.80;;
57889;SDS011;43707;50.184;18.966;2024-03-06T07:51:39;0.90;;;0.60;;
57889;SDS011;43707;50.184;18.966;2024-03-06T07:54:06;1.80;;;1.30;;
57889;SDS011;43707;50.184;18.966;2024-03-06T07:56:31;0.60;;;0.60;;
57889;SDS011;43707;50.184;18.966;2024-03-06T07:58:56;0.70;;;0.60;;
57889;SDS011;43707;50.184;18.966;2024-03-06T08:01:22;0.70;;;0.70;;
57889;SDS011;43707;50.184;18.966;2024-03-06T08:03:48;0.70;;;0.70;;
57889;SDS011;43707;50.184;18.966;2024-03-06T08:06:14;0.70;;;0.70;;
57889;SDS011;43707;50.184;18.966;2024-03-06T08:08:43;0.90;;;0.70;;
57889;SDS011;43707;50.184;18.966;2024-03-06T08:11:12;3.20;;;1.10;;
57889;SDS011;43707;50.184;18.966;2024-03-06T08:13:40;5.60;;;1.10;;
57889;SDS011;43707;50.184;18.966;2024-03-06T08:16:06;2.00;;;1.00;;
57889;SDS011;43707;50.184;18.966;2024-03-06T08:18:32;0.80;;;0.60;;
57889;SDS011;43707;50.184;18.966;2024-03-06T08:21:00;1.20;;;0.70;;
57889;SDS011;43707;50.184;18.966;2024-03-06T08:23:25;2.20;;;1.00;;
57889;SDS011;43707;50.184;18.966;2024-03-06T08:25:51;0.70;;;0.70;;
57889;SDS011;43707;50.184;18.966;2024-03-06T08:28:17;1.10;;;0.80;;
57889;SDS011;43707;50.184;18.966;2024-03-06T08:30:43;0.90;;;0.80;;
57889;SDS011;43707;50.184;18.966;2024-03-06T08:33:09;1.70;;;0.90;;
57889;SDS011;43707;50.184;18.966;2024-03-06T08:35:35;1.10;;;0.80;;
57889;SDS011;43707;50.184;18.966;2024-03-06T08:38:01;1.30;;;1.00;;
57889;SDS011;43707;50.184;18.966;2024-03-06T08:40:26;1.00;;;0.70;;
57889;SDS011;43707;50.184;18.966;2024-03-06T08:42:53;0.80;;;0.80;;
57889;SDS011;43707;50.184;18.966;2024-03-06T08:45:19;2.80;;;0.70;;
57889;SDS011;43707;50.184;18.966;2024-03-06T08:47:45;0.80;;;0.70;;
57889;SDS011;43707;50.184;18.966;2024-03-06T08:50:12;1.80;;;0.90;;
57889;SDS011;43707;50.184;18.966;2024-03-06T08:52:38;1.20;;;0.80;;
57889;SDS011;43707;50.184;18.966;2024-03-06T08:55:04;0.80;;;0.70;;
57889;SDS011;43707;50.184;18.966;2024-03-06T08:57:34;1.00;;;0.70;;
57889;SDS011;43707;50.184;18.966;2024-03-06T09:00:00;0.90;;;0.60;;
57889;SDS011;43707;50.184;18.966;2024-03-06T09:02:25;0.70;;;0.60;;
57889;SDS011;43707;50.184;18.966;2024-03-06T09:04:51;0.60;;;0.60;;
57889;SDS011;43707;50.184;18.966;2024-03-06T09:07:17;1.50;;;0.90;;
57889;SDS011;43707;50.184;18.966;2024-03-06T09:09:43;0.90;;;0.70;;
57889;SDS011;43707;50.184;18.966;2024-03-06T09:12:09;0.70;;;0.60;;
57889;SDS011;43707;50.184;18.966;2024-03-06T09:14:36;1.20;;;1.00;;
57889;SDS011;43707;50.184;18.966;2024-03-06T09:17:02;0.70;;;0.70;;
57889;SDS011;43707;50.184;18.966;2024-03-06T09:19:28;1.30;;;1.00;;
57889;SDS011;43707;50.184;18.966;2024-03-06T09:21:54;1.00;;;0.70;;
57889;SDS011;43707;50.184;18.966;2024-03-06T09:24:20;0.80;;;0.50;;
57889;SDS011;43707;50.184;18.966;2024-03-06T09:26:47;0.90;;;0.90;;
57889;SDS011;43707;50.184;18.966;2024-03-06T09:29:13;1.20;;;0.70;;
57889;SDS011;43707;50.184;18.966;2024-03-06T09:31:38;0.70;;;0.60;;
57889;SDS011;43707;50.184;18.966;2024-03-06T09:34:04;1.20;;;0.90;;
57889;SDS011;43707;50.184;18.966;2024-03-06T09:36:29;0.70;;;0.70;;
57889;SDS011;43707;50.184;18.966;2024-03-06T09:38:54;0.80;;;0.80;;
57889;SDS011;43707;50.184;18.966;2024-03-06T09:41:21;0.90;;;0.80;;
57889;SDS011;43707;50.184;18.966;2024-03-06T09:43:50;0.90;;;0.70;;
57889;SDS011;43707;50.184;18.966;2024-03-06T09:46:15;0.80;;;0.70;;
57889;SDS011;43707;50.184;18.966;2024-03-06T09:48:45;0.70;;;0.70;;
57889;SDS011;43707;50.184;18.966;2024-03-06T09:51:12;0.70;;;0.70;;
57889;SDS011;43707;50.184;18.966;2024-03-06T09:53:41;0.60;;;0.50;;
57889;SDS011;43707;50.184;18.966;2024-03-06T09:56:08;0.90;;;0.60;;
57889;SDS011;43707;50.184;18.966;2024-03-06T09:58:36;0.50;;;0.50;;
57889;SDS011;43707;50.184;18.966;2024-03-06T10:01:02;0.60;;;0.60;;
57889;SDS011;43707;50.184;18.966;2024-03-06T10:03:29;0.80;;;0.80;;
57889;SDS011;43707;50.184;18.966;2024-03-06T10:05:55;0.60;;;0.60;;
57889;SDS011;43707;50.184;18.966;2024-03-06T10:08:21;2.20;;;0.70;;
57889;SDS011;43707;50.184;18.966;2024-03-06T10:10:48;0.50;;;0.50;;
57889;SDS011;43707;50.184;18.966;2024-03-06T10:13:16;0.60;;;0.50;;
57889;SDS011;43707;50.184;18.966;2024-03-06T10:15:42;0.90;;;0.70;;
57889;SDS011;43707;50.184;18.966;2024-03-06T10:18:21;0.60;;;0.50;;
57889;SDS011;43707;50.184;18.966;2024-03-06T10:20:47;0.50;;;0.50;;
57889;SDS011;43707;50.184;18.966;2024-03-06T10:23:12;0.50;;;0.50;;
57889;SDS011;43707;50.184;18.966;2024-03-06T10:25:38;0.40;;;0.40;;
57889;SDS011;43707;50.184;18.966;2024-03-06T10:28:04;0.50;;;0.40;;
57889;SDS011;43707;50.184;18.966;2024-03-06T10:30:31;1.90;;;0.80;;
57889;SDS011;43707;50.184;18.966;2024-03-06T10:32:56;0.50;;;0.50;;
57889;SDS011;43707;50.184;18.966;2024-03-06T10:35:22;0.40;;;0.40;;
57889;SDS011;43707;50.184;18.966;2024-03-06T10:37:47;0.30;;;0.30;;
57889;SDS011;43707;50.184;18.966;2024-03-06T10:40:14;0.60;;;0.40;;
57889;SDS011;43707;50.184;18.966;2024-03-06T10:42:41;4.90;;;0.60;;
57889;SDS011;43707;50.184;18.966;2024-03-06T10:45:07;0.80;;;0.60;;
57889;SDS011;43707;50.184;18.966;2024-03-06T10:47:33;0.40;;;0.40;;
57889;SDS011;43707;50.184;18.966;2024-03-06T10:50:03;0.40;;;0.40;;
57889;SDS011;43707;50.184;18.966;2024-03-06T10:52:30;0.70;;;0.50;;
57889;SDS011;43707;50.184;18.966;2024-03-06T10:54:58;0.70;;;0.60;;
57889;SDS011;43707;50.184;18.966;2024-03-06T10:57:24;0.40;;;0.40;;
57889;SDS011;43707;50.184;18.966;2024-03-06T10:59:50;0.60;;;0.50;;
57889;SDS011;43707;50.184;18.966;2024-03-06T11:02:17;2.40;;;0.70;;
57889;SDS011;43707;50.184;18.966;2024-03-06T11:04:43;2.10;;;0.40;;
57889;SDS011;43707;50.184;18.966;2024-03-06T11:07:09;0.70;;;0.50;;
57889;SDS011;43707;50.184;18.966;2024-03-06T11:09:35;0.50;;;0.50;;
57889;SDS011;43707;50.184;18.966;2024-03-06T11:12:03;0.60;;;0.60;;
57889;SDS011;43707;50.184;18.966;2024-03-06T11:14:32;0.80;;;0.60;;
57889;SDS011;43707;50.184;18.966;2024-03-06T11:19:31;0.40;;;0.40;;
57889;SDS011;43707;50.184;18.966;2024-03-06T11:21:58;0.70;;;0.70;;
57889;SDS011;43707;50.184;18.966;2024-03-06T11:24:34;0.60;;;0.60;;
57889;SDS011;43707;50.184;18.966;2024-03-06T11:27:00;0.60;;;0.60;;
57889;SDS011;43707;50.184;18.966;2024-03-06T11:29:29;1.20;;;0.80;;
57889;SDS011;43707;50.184;18.966;2024-03-06T11:32:56;0.70;;;0.70;;
57889;SDS011;43707;50.184;18.966;2024-03-06T11:35:28;0.60;;;0.60;;
57889;SDS011;43707;50.184;18.966;2024-03-06T11:37:53;0.70;;;0.70;;
57889;SDS011;43707;50.184;18.966;2024-03-06T11:40:23;0.50;;;0.50;;
57889;SDS011;43707;50.184;18.966;2024-03-06T11:42:49;0.60;;;0.60;;
57889;SDS011;43707;50.184;18.966;2024-03-06T11:45:18;1.10;;;0.90;;
57889;SDS011;43707;50.184;18.966;2024-03-06T11:47:59;1.10;;;0.90;;
57889;SDS011;43707;50.184;18.966;2024-03-06T11:50:26;0.80;;;0.80;;
57889;SDS011;43707;50.184;18.966;2024-03-06T11:52:57;0.70;;;0.60;;
57889;SDS011;43707;50.184;18.966;2024-03-06T11:55:23;1.00;;;0.90;;
57889;SDS011;43707;50.184;18.966;2024-03-06T11:57:50;1.20;;;0.90;;
57889;SDS011;43707;50.184;18.966;2024-03-06T12:00:16;0.80;;;0.70;;
57889;SDS011;43707;50.184;18.966;2024-03-06T12:02:42;0.50;;;0.50;;
57889;SDS011;43707;50.184;18.966;2024-03-06T12:05:08;0.40;;;0.40;;
57889;SDS011;43707;50.184;18.966;2024-03-06T12:07:48;0.50;;;0.40;;
57889;SDS011;43707;50.184;18.966;2024-03-06T12:10:15;0.50;;;0.50;;
57889;SDS011;43707;50.184;18.966;2024-03-06T12:12:41;0.60;;;0.60;;
57889;SDS011;43707;50.184;18.966;2024-03-06T12:15:10;0.60;;;0.60;;
57889;SDS011;43707;50.184;18.966;2024-03-06T12:17:47;0.40;;;0.30;;
57889;SDS011;43707;50.184;18.966;2024-03-06T12:20:17;0.50;;;0.40;;
57889;SDS011;43707;50.184;18.966;2024-03-06T12:22:51;0.30;;;0.30;;
57889;SDS011;43707;50.184;18.966;2024-03-06T12:25:18;0.50;;;0.40;;
57889;SDS011;43707;50.184;18.966;2024-03-06T12:27:47;0.50;;;0.50;;
57889;SDS011;43707;50.184;18.966;2024-03-06T12:30:16;0.50;;;0.50;;
57889;SDS011;43707;50.184;18.966;2024-03-06T12:32:58;0.70;;;0.60;;
57889;SDS011;43707;50.184;18.966;2024-03-06T12:35:27;0.70;;;0.50;;
57889;SDS011;43707;50.184;18.966;2024-03-06T12:37:53;0.50;;;0.50;;
57889;SDS011;43707;50.184;18.966;2024-03-06T12:40:19;0.60;;;0.50;;
57889;SDS011;43707;50.184;18.966;2024-03-06T12:42:45;0.70;;;0.60;;
57889;SDS011;43707;50.184;18.966;2024-03-06T12:45:14;0.60;;;0.50;;
57889;SDS011;43707;50.184;18.966;2024-03-06T12:47:43;1.30;;;0.60;;
57889;SDS011;43707;50.184;18.966;2024-03-06T12:50:15;1.00;;;0.90;;
57889;SDS011;43707;50.184;18.966;2024-03-06T12:52:41;0.60;;;0.60;;
57889;SDS011;43707;50.184;18.966;2024-03-06T12:55:10;0.90;;;0.80;;
57889;SDS011;43707;50.184;18.966;2024-03-06T12:57:36;0.70;;;0.60;;
57889;SDS011;43707;50.184;18.966;2024-03-06T13:00:01;1.70;;;0.60;;
57889;SDS011;43707;50.184;18.966;2024-03-06T13:02:27;0.40;;;0.40;;
57889;SDS011;43707;50.184;18.966;2024-03-06T13:04:52;0.60;;;0.60;;
57889;SDS011;43707;50.184;18.966;2024-03-06T13:07:18;0.60;;;0.50;;
57889;SDS011;43707;50.184;18.966;2024-03-06T13:09:44;0.50;;;0.50;;
57889;SDS011;43707;50.184;18.966;2024-03-06T13:12:10;0.70;;;0.60;;
57889;SDS011;43707;50.184;18.966;2024-03-06T13:14:35;0.70;;;0.60;;
57889;SDS011;43707;50.184;18.966;2024-03-06T13:17:01;0.40;;;0.40;;
57889;SDS011;43707;50.184;18.966;2024-03-06T13:19:27;2.10;;;0.60;;
57889;SDS011;43707;50.184;18.966;2024-03-06T13:21:53;0.60;;;0.60;;
57889;SDS011;43707;50.184;18.966;2024-03-06T13:24:18;0.80;;;0.50;;
57889;SDS011;43707;50.184;18.966;2024-03-06T13:26:45;0.50;;;0.50;;
57889;SDS011;43707;50.184;18.966;2024-03-06T13:29:10;0.50;;;0.50;;
57889;SDS011;43707;50.184;18.966;2024-03-06T13:31:36;0.60;;;0.60;;
57889;SDS011;43707;50.184;18.966;2024-03-06T13:34:03;0.50;;;0.50;;
57889;SDS011;43707;50.184;18.966;2024-03-06T13:36:29;0.90;;;0.60;;
57889;SDS011;43707;50.184;18.966;2024-03-06T13:38:54;0.50;;;0.50;;
57889;SDS011;43707;50.184;18.966;2024-03-06T13:41:20;0.70;;;0.60;;
57889;SDS011;43707;50.184;18.966;2024-03-06T13:43:46;0.50;;;0.40;;
57889;SDS011;43707;50.184;18.966;2024-03-06T13:46:11;0.80;;;0.70;;
57889;SDS011;43707;50.184;18.966;2024-03-06T13:48:37;0.80;;;0.60;;
57889;SDS011;43707;50.184;18.966;2024-03-06T13:51:02;0.40;;;0.40;;
57889;SDS011;43707;50.184;18.966;2024-03-06T13:53:29;0.60;;;0.60;;
57889;SDS011;43707;50.184;18.966;2024-03-06T13:55:55;0.70;;;0.60;;
57889;SDS011;43707;50.184;18.966;2024-03-06T13:58:21;0.80;;;0.50;;
57889;SDS011;43707;50.184;18.966;2024-03-06T14:00:46;0.90;;;0.90;;
57889;SDS011;43707;50.184;18.966;2024-03-06T14:03:12;0.70;;;0.70;;
57889;SDS011;43707;50.184;18.966;2024-03-06T14:05:38;0.80;;;0.70;;
57889;SDS011;43707;50.184;18.966;2024-03-06T14:08:04;0.60;;;0.50;;
57889;SDS011;43707;50.184;18.966;2024-03-06T14:10:30;0.50;;;0.50;;
57889;SDS011;43707;50.184;18.966;2024-03-06T14:13:01;0.60;;;0.60;;
57889;SDS011;43707;50.184;18.966;2024-03-06T14:15:27;0.70;;;0.70;;
57889;SDS011;43707;50.184;18.966;2024-03-06T14:17:52;0.50;;;0.50;;
57889;SDS011;43707;50.184;18.966;2024-03-06T14:20:22;0.60;;;0.60;;
57889;SDS011;43707;50.184;18.966;2024-03-06T14:22:48;0.60;;;0.60;;
57889;SDS011;43707;50.184;18.966;2024-03-06T14:25:14;0.60;;;0.60;;
57889;SDS011;43707;50.184;18.966;2024-03-06T14:27:40;0.70;;;0.70;;
57889;SDS011;43707;50.184;18.966;2024-03-06T14:30:06;1.00;;;0.80;;
57889;SDS011;43707;50.184;18.966;2024-03-06T14:32:32;1.00;;;0.90;;